Aviation Digital Data Service (ADDS)

Output produced by METARs form (1309 UTC 25 August 2016)
found at http://aviationweather.gov/adds/metars/
 
KDTW 251301Z 2513/2618 23011KT 6SM BR FEW035 SCT070 OVC100 
     TEMPO 2513/2515 -SHRA BR SCT035 BKN060 BKN070 
     FM251900 24013G20KT P6SM BKN040 
     TEMPO 2520/2523 2SM TSRA OVC025CB 
     FM260100 28010KT P6SM SCT250 
     FM260800 27005KT 5SM BR SCT200